Time;durP1;ratioP1;P1;durP2;ratioP2;P2;SDS_P1;SDS_P2;PMS_P1;PMS_P2;Temp;Humidity;BMP_temperature;BMP_pressure;BME280_temperature;BME280_humidity;BME280_pressure;Samples;Min_cycle;Max_cycle;Signal;HPM_P1;HPM_P2
2022/08/25 00:00:58;;;;;;;51.42;29.05;;;;;;;22.99;87.02;101644.63;5041078;28;20373;-83
2022/08/25 00:03:23;;;;;;;45.70;27.73;;;;;;;23.06;87.01;101638.16;5025455;28;20064;-82
2022/08/25 00:05:48;;;;;;;54.67;31.05;;;;;;;23.07;86.71;101637.09;5024014;28;20026;-81
2022/08/25 00:08:14;;;;;;;52.70;30.02;;;;;;;23.04;86.63;101641.16;5030343;28;20025;-82
2022/08/25 00:10:40;;;;;;;50.30;29.30;;;;;;;23.09;86.69;101630.28;5022667;28;20100;-82
2022/08/25 00:13:05;;;;;;;54.40;31.13;;;;;;;23.09;86.32;101632.16;5033465;28;20164;-82
2022/08/25 00:15:31;;;;;;;50.20;29.50;;;;;;;23.07;86.63;101634.34;5026658;28;20511;-82
2022/08/25 00:17:57;;;;;;;54.83;28.98;;;;;;;22.99;86.63;101633.66;5018728;28;20022;-82
2022/08/25 00:20:24;;;;;;;52.78;29.77;;;;;;;22.98;86.51;101631.97;5011261;28;20033;-83
2022/08/25 00:22:49;;;;;;;48.40;28.85;;;;;;;22.96;86.92;101623.16;5039934;28;20013;-83
2022/08/25 00:25:17;;;;;;;54.55;30.65;;;;;;;22.96;86.83;101625.91;5040393;28;20052;-84
2022/08/25 00:27:43;;;;;;;51.60;30.90;;;;;;;22.96;86.83;101616.78;5037601;28;20033;-83
2022/08/25 00:30:09;;;;;;;53.10;30.65;;;;;;;22.94;86.69;101618.97;5041990;28;20055;-83
2022/08/25 00:32:35;;;;;;;54.40;30.15;;;;;;;22.92;86.85;101626.59;5040282;28;20036;-84
2022/08/25 00:35:00;;;;;;;52.05;29.80;;;;;;;22.92;86.93;101615.63;5028245;28;20037;-83
2022/08/25 00:37:26;;;;;;;54.88;28.13;;;;;;;22.85;86.97;101613.00;5045103;28;20037;-84
2022/08/25 00:39:53;;;;;;;56.88;33.35;;;;;;;22.87;86.65;101613.59;5013968;28;20069;-83
2022/08/25 00:42:19;;;;;;;63.80;33.45;;;;;;;22.80;87.03;101610.16;5043950;28;20084;-84
2022/08/25 00:44:45;;;;;;;58.92;33.50;;;;;;;22.79;87.16;101614.00;5019147;28;20032;-84
2022/08/25 00:47:11;;;;;;;49.72;31.17;;;;;;;22.83;87.04;101606.97;5037341;28;20026;-83
2022/08/25 00:49:53;;;;;;;57.17;32.25;;;;;;;22.82;87.00;101613.50;5011525;28;20470;-83
2022/08/25 00:52:24;;;;;;;54.15;29.40;;;;;;;22.80;87.07;101607.44;5005896;28;20384;-84
2022/08/25 00:54:54;;;;;;;54.00;31.98;;;;;;;22.84;86.91;101602.31;5023810;28;20038;-84
2022/08/25 00:57:35;;;;;;;57.30;33.30;;;;;;;22.81;86.94;101598.13;5021761;28;20060;-83
2022/08/25 01:00:07;;;;;;;56.15;35.10;;;;;;;22.79;87.09;101597.53;5024299;28;20089;-82
2022/08/25 01:02:32;;;;;;;54.95;34.40;;;;;;;22.77;87.55;101602.44;5036605;28;20094;-84
2022/08/25 01:04:58;;;;;;;60.30;34.53;;;;;;;22.73;87.50;101596.63;5049818;28;20052;-84
2022/08/25 01:07:23;;;;;;;58.53;33.92;;;;;;;22.68;87.73;101593.75;5015163;28;20014;-83
2022/08/25 01:09:51;;;;;;;56.70;34.33;;;;;;;22.67;87.90;101591.25;5045133;28;20057;-83
2022/08/25 01:12:16;;;;;;;;;;;;;;;22.63;87.90;101593.66;5012062;28;20032;-84
2022/08/25 01:14:45;;;;;;;73.75;35.75;;;;;;;22.56;88.10;101596.56;5044969;28;19916;-81
2022/08/25 01:17:11;;;;;;;57.95;35.58;;;;;;;22.55;88.34;101591.31;5036398;28;20045;-83
2022/08/25 01:19:36;;;;;;;60.45;36.53;;;;;;;22.53;88.40;101591.53;5049856;28;20037;-83
2022/08/25 01:22:02;;;;;;;57.53;34.97;;;;;;;22.53;88.48;101588.81;5047279;28;20048;-83
2022/08/25 01:24:39;;;;;;;58.45;36.70;;;;;;;22.48;88.19;101577.72;5031349;28;20018;-83
2022/08/25 01:27:05;;;;;;;59.95;37.90;;;;;;;22.45;88.31;101578.22;5046990;28;20037;-84
2022/08/25 01:29:32;;;;;;;57.20;36.53;;;;;;;22.41;88.35;101582.53;5034455;28;20052;-81
2022/08/25 01:32:00;;;;;;;64.13;36.70;;;;;;;22.46;88.01;101573.56;5024066;28;20093;-83
2022/08/25 01:34:29;;;;;;;61.55;37.13;;;;;;;22.44;88.37;101576.56;5024296;28;20060;-82
2022/08/25 01:36:56;;;;;;;62.60;38.95;;;;;;;22.41;88.57;101576.19;5040650;28;20049;-82
2022/08/25 01:39:22;;;;;;;69.80;38.03;;;;;;;22.39;88.68;101572.88;5035237;28;20037;-82
2022/08/25 01:41:47;;;;;;;65.97;38.70;;;;;;;22.33;88.93;101580.19;5032227;28;20036;-83
2022/08/25 01:44:14;;;;;;;63.33;37.55;;;;;;;22.28;88.91;101580.06;5031603;28;20029;-82
2022/08/25 01:46:39;;;;;;;62.90;38.45;;;;;;;22.29;88.98;101576.25;5031356;28;20025;-82
2022/08/25 01:49:05;;;;;;;65.25;38.65;;;;;;;22.25;89.24;101573.16;5028067;28;20080;-83
2022/08/25 01:51:37;;;;;;;66.55;40.78;;;;;;;22.23;88.75;101569.00;5030292;28;20040;-84
2022/08/25 01:54:02;;;;;;;63.78;39.92;;;;;;;22.23;89.28;101567.06;5049043;28;20022;-82
2022/08/25 01:56:27;;;;;;;66.97;39.10;;;;;;;22.18;89.32;101566.94;5047539;28;20494;-83
2022/08/25 01:58:53;;;;;;;58.78;36.67;;;;;;;22.16;89.61;101563.59;5030387;28;20039;-82
2022/08/25 02:01:20;;;;;;;61.05;38.25;;;;;;;22.13;89.71;101561.34;5049448;28;20128;-81
2022/08/25 02:03:48;;;;;;;63.47;38.83;;;;;;;22.11;89.73;101558.84;5044231;28;20029;-83
2022/08/25 02:06:42;;;;;;;62.13;38.83;;;;;;;22.12;89.67;101571.47;5039957;28;20018;-82
2022/08/25 02:09:15;;;;;;;60.72;37.53;;;;;;;22.06;89.65;101552.41;5049716;28;20089;-83
2022/08/25 02:11:44;;;;;;;62.00;40.75;;;;;;;22.03;90.28;101559.22;5032228;28;20290;-84
2022/08/25 02:14:10;;;;;;;61.83;40.35;;;;;;;22.05;89.98;101568.03;5035820;28;20025;-83
2022/08/25 02:16:37;;;;;;;66.57;38.35;;;;;;;22.02;90.11;101556.72;5049241;28;20013;-83
2022/08/25 02:19:05;;;;;;;63.87;40.83;;;;;;;21.98;90.51;101550.88;5009100;28;20041;-82
2022/08/25 02:21:31;;;;;;;64.10;40.55;;;;;;;21.98;90.62;101561.00;5038324;28;20060;-82
2022/08/25 02:23:56;;;;;;;64.72;37.20;;;;;;;21.92;90.49;101562.81;5054706;28;20022;-83
2022/08/25 02:26:22;;;;;;;59.70;36.65;;;;;;;21.89;91.08;101557.81;5053743;28;20035;-83
2022/08/25 02:28:49;;;;;;;78.05;44.22;;;;;;;21.91;91.05;101559.25;5023817;28;20468;-82
2022/08/25 02:31:16;;;;;;;72.07;43.67;;;;;;;21.90;91.21;101554.81;5042515;28;20116;-82
2022/08/25 02:33:41;;;;;;;70.25;42.45;;;;;;;21.87;91.31;101547.06;5109923;23;20199;-76
2022/08/25 02:36:07;;;;;;;69.40;43.63;;;;;;;21.79;91.64;101543.88;5066074;28;20132;-76
2022/08/25 02:38:33;;;;;;;70.90;43.53;;;;;;;21.76;91.67;101544.38;5051674;28;20129;-78
2022/08/25 02:40:59;;;;;;;80.32;46.58;;;;;;;21.73;91.99;101540.19;5071389;28;20023;-76
2022/08/25 02:43:26;;;;;;;74.68;44.38;;;;;;;21.68;92.13;101534.59;5026995;28;20021;-76
2022/08/25 02:45:53;;;;;;;65.82;42.90;;;;;;;21.68;92.01;101540.06;5055736;28;20036;-76
2022/08/25 02:48:18;;;;;;;67.50;41.40;;;;;;;21.65;92.04;101537.81;5073115;28;20048;-76
2022/08/25 02:50:48;;;;;;;64.72;43.08;;;;;;;21.67;92.04;101530.19;5075419;28;20229;-76
2022/08/25 02:53:14;;;;;;;78.68;41.45;;;;;;;21.64;91.49;101526.03;5075252;28;20024;-76
2022/08/25 02:55:39;;;;;;;69.95;40.42;;;;;;;21.61;91.80;101522.91;5071658;28;20126;-76
2022/08/25 02:58:05;;;;;;;66.20;41.13;;;;;;;21.62;91.72;101525.44;5072583;28;20043;-76
2022/08/25 03:00:30;;;;;;;69.57;40.20;;;;;;;21.61;91.17;101523.75;5071403;28;20091;-76
2022/08/25 03:02:56;;;;;;;60.17;40.40;;;;;;;21.61;91.27;101517.44;5054096;28;20029;-76
2022/08/25 03:05:21;;;;;;;66.57;38.83;;;;;;;21.58;91.11;101512.44;5054409;28;20039;-76
2022/08/25 03:07:47;;;;;;;59.40;38.70;;;;;;;21.57;90.79;101514.34;5073727;28;20028;-77
2022/08/25 03:10:16;;;;;;;58.35;36.35;;;;;;;21.55;91.11;101508.28;5073300;28;20386;-76
2022/08/25 03:12:41;;;;;;;54.80;37.17;;;;;;;21.50;90.84;101502.69;5064594;28;20101;-76
2022/08/25 03:15:12;;;;;;;61.17;37.10;;;;;;;21.48;90.70;101507.56;5074725;28;20475;-75
2022/08/25 03:17:37;;;;;;;59.13;37.85;;;;;;;21.45;90.65;101497.09;5055627;28;20028;-76
2022/08/25 03:20:04;;;;;;;53.58;37.72;;;;;;;21.46;90.45;101510.56;5072346;28;20087;-76
2022/08/25 03:22:30;;;;;;;63.90;37.72;;;;;;;21.45;90.24;101508.88;5053499;28;20035;-77
2022/08/25 03:26:52;;;;;;;60.60;35.10;;;;;;;21.47;90.23;101494.94;5071715;28;20025;-75
2022/08/25 03:27:40;;;;;;;57.05;37.05;;;;;;;21.45;90.06;101491.59;5055848;28;20695;-76
2022/08/25 03:30:06;;;;;;;56.03;36.97;;;;;;;21.41;89.95;101487.69;5066917;28;20032;-76
2022/08/25 03:32:32;;;;;;;55.85;35.22;;;;;;;21.40;90.18;101491.50;5068247;28;20549;-77
2022/08/25 03:35:00;;;;;;;54.92;35.10;;;;;;;21.41;89.72;101483.06;5046985;28;20389;-75
2022/08/25 03:37:26;;;;;;;67.38;36.47;;;;;;;21.39;89.40;101481.63;5023631;28;20028;-75
2022/08/25 03:39:51;;;;;;;55.13;35.10;;;;;;;21.35;89.60;101481.22;5051192;28;20078;-76
2022/08/25 03:42:16;;;;;;;59.42;35.15;;;;;;;21.36;89.45;101473.84;5028707;28;20032;-76
2022/08/25 03:44:42;;;;;;;56.05;35.08;;;;;;;21.31;89.32;101469.09;5049401;28;20526;-76
2022/08/25 03:47:07;;;;;;;52.47;34.05;;;;;;;21.29;89.39;101463.00;5050392;28;20492;-76
2022/08/25 03:49:32;;;;;;;56.08;34.55;;;;;;;21.25;89.20;101457.19;5048735;28;20044;-77
2022/08/25 03:51:58;;;;;;;54.05;34.38;;;;;;;21.22;89.22;101462.28;5035099;28;20017;-77
2022/08/25 03:54:24;;;;;;;49.40;33.63;;;;;;;21.24;89.28;101458.25;5052835;28;20032;-76
2022/08/25 03:56:50;;;;;;;45.65;32.28;;;;;;;21.15;89.24;101458.84;5050667;28;20537;-76
2022/08/25 03:59:16;;;;;;;67.70;33.90;;;;;;;21.13;89.20;101455.50;5048068;28;20047;-77
2022/08/25 04:01:42;;;;;;;49.67;32.33;;;;;;;21.09;89.28;101455.16;5047644;28;20475;-77
2022/08/25 04:04:09;;;;;;;49.15;31.58;;;;;;;21.04;89.64;101458.59;5036278;28;20111;-77
2022/08/25 04:06:37;;;;;;;51.88;34.33;;;;;;;21.04;89.52;101455.03;5026921;28;20128;-75
2022/08/25 04:09:02;;;;;;;56.28;33.95;;;;;;;21.02;89.13;101454.44;5033937;28;20033;-77
2022/08/25 04:11:28;;;;;;;56.75;33.17;;;;;;;21.02;89.43;101452.53;5046221;28;20037;-77
2022/08/25 04:13:56;;;;;;;50.47;32.83;;;;;;;20.96;88.92;101452.66;5051396;28;20021;-77
2022/08/25 04:16:23;;;;;;;50.53;34.05;;;;;;;20.95;89.20;101449.06;5046103;28;20107;-77
2022/08/25 04:18:50;;;;;;;63.10;33.67;;;;;;;20.93;89.23;101444.91;5052797;28;20036;-76
2022/08/25 04:21:16;;;;;;;46.47;31.23;;;;;;;20.90;89.34;101442.63;5046873;28;20115;-76
2022/08/25 04:23:43;;;;;;;52.08;31.50;;;;;;;20.85;89.20;101447.97;5057277;28;20033;-76
2022/08/25 04:26:11;;;;;;;57.23;34.93;;;;;;;20.80;89.56;101440.47;5052594;28;20021;-76
2022/08/25 04:28:37;;;;;;;60.63;33.63;;;;;;;20.74;89.44;101447.72;5033377;28;20037;-77
2022/08/25 04:31:05;;;;;;;53.55;35.08;;;;;;;20.72;89.58;101444.41;5033418;28;20043;-76
2022/08/25 04:33:31;;;;;;;55.47;33.67;;;;;;;20.68;89.62;101451.41;5033349;28;20154;-76
2022/08/25 04:35:57;;;;;;;52.85;30.20;;;;;;;20.65;89.95;101446.41;5049541;28;20069;-76
2022/08/25 04:38:22;;;;;;;57.20;34.42;;;;;;;20.62;90.02;101457.81;5041596;28;20132;-74
2022/08/25 04:40:55;;;;;;;55.70;34.30;;;;;;;20.61;90.25;101446.03;5024744;28;20367;-75
2022/08/25 04:43:20;;;;;;;52.08;33.25;;;;;;;20.59;90.26;101452.81;5051771;28;20035;-75
2022/08/25 04:45:46;;;;;;;47.17;30.52;;;;;;;20.63;90.25;101448.53;5050995;28;20034;-75
2022/08/25 04:48:11;;;;;;;45.78;29.77;;;;;;;20.64;89.98;101446.63;5051414;28;20104;-75
2022/08/25 04:50:39;;;;;;;54.88;33.40;;;;;;;20.61;89.92;101450.66;5050157;28;20095;-76
2022/08/25 04:53:05;;;;;;;49.00;31.38;;;;;;;20.63;89.78;101445.81;5046469;28;20044;-77
2022/08/25 04:55:30;;;;;;;51.80;32.40;;;;;;;20.60;90.04;101449.00;5051697;28;20656;-75
2022/08/25 04:57:55;;;;;;;45.97;30.23;;;;;;;20.58;89.98;101454.69;5033748;28;20247;-76
2022/08/25 05:00:21;;;;;;;58.38;32.78;;;;;;;20.54;89.88;101449.97;5051568;28;20071;-77
2022/08/25 05:10:27;;;;;;;47.50;32.13;;;;;;;20.58;90.45;101453.88;5048770;23;20044;-78
2022/08/25 05:12:52;;;;;;;50.30;28.75;;;;;;;20.66;89.97;101455.44;5073493;28;20025;-77
2022/08/25 05:18:02;;;;;;;44.05;28.23;;;;;;;20.78;88.04;101456.31;5074631;28;20043;-79
2022/08/25 05:20:29;;;;;;;41.30;27.67;;;;;;;20.83;87.14;101451.78;5056513;28;20047;-80
2022/08/25 05:22:55;;;;;;;;;;;;;;;20.89;86.43;101460.13;5044830;28;20114;-75
2022/08/25 05:25:20;;;;;;;44.38;26.70;;;;;;;20.89;85.85;101454.66;5034540;28;19920;-75
2022/08/25 05:27:46;;;;;;;39.05;26.73;;;;;;;20.91;85.69;101449.78;5051237;28;20486;-74
2022/08/25 05:30:11;;;;;;;39.25;23.17;;;;;;;20.98;85.18;101448.59;5069933;28;20031;-76
2022/08/25 05:32:37;;;;;;;46.20;25.83;;;;;;;21.07;84.76;101451.81;5065739;28;20426;-77
2022/08/25 05:35:04;;;;;;;41.80;24.77;;;;;;;21.15;83.81;101448.72;5070772;28;20033;-76
2022/08/25 05:37:29;;;;;;;40.40;25.25;;;;;;;21.34;82.83;101462.31;5070283;28;20040;-77
2022/08/25 05:39:54;;;;;;;40.17;21.77;;;;;;;21.60;81.87;101458.25;5056339;28;20033;-77
2022/08/25 05:42:21;;;;;;;34.85;21.65;;;;;;;21.91;80.63;101457.84;5036655;28;20040;-77
2022/08/25 05:44:46;;;;;;;42.22;22.52;;;;;;;22.32;77.84;101468.81;5062819;28;20027;-76
2022/08/25 05:47:12;;;;;;;34.17;20.73;;;;;;;22.67;76.12;101462.28;5072457;28;20032;-76
2022/08/25 05:49:37;;;;;;;42.83;21.63;;;;;;;23.25;73.99;101461.09;5052687;28;20499;-76
2022/08/25 05:52:02;;;;;;;37.47;20.17;;;;;;;23.57;71.59;101465.97;5073954;28;20035;-75
2022/08/25 05:54:28;;;;;;;39.47;20.20;;;;;;;23.49;69.55;101467.22;5068157;28;20021;-76
2022/08/25 05:56:54;;;;;;;46.50;22.10;;;;;;;23.27;69.34;101469.91;5057131;28;20115;-76
2022/08/25 05:59:19;;;;;;;43.45;21.85;;;;;;;23.02;70.04;101462.13;5064710;28;20361;-76
2022/08/25 06:04:28;;;;;;;51.92;22.30;;;;;;;22.61;70.71;101460.56;5074025;28;20131;-76
2022/08/25 06:06:54;;;;;;;49.00;22.13;;;;;;;22.49;70.95;101464.19;5074856;28;20024;-76
2022/08/25 06:09:23;;;;;;;45.88;22.90;;;;;;;22.37;70.88;101470.81;5062334;28;20041;-77
2022/08/25 06:11:48;;;;;;;45.53;21.38;;;;;;;22.30;71.20;101449.00;5058007;28;20059;-78
2022/08/25 06:14:14;;;;;;;59.38;23.17;;;;;;;22.40;70.82;101454.69;5055821;28;20092;-77
2022/08/25 06:16:39;;;;;;;44.33;20.77;;;;;;;22.91;71.02;101450.09;5022864;28;20392;-75
2022/08/25 06:19:06;;;;;;;44.05;21.70;;;;;;;23.56;67.81;101445.88;5038465;28;20111;-76
2022/08/25 06:21:32;;;;;;;58.80;23.33;;;;;;;24.24;64.97;101446.44;5036402;28;20021;-77
2022/08/25 06:23:57;;;;;;;61.35;23.13;;;;;;;24.42;62.15;101449.94;5035582;28;20025;-76
2022/08/25 06:26:23;;;;;;;51.28;21.92;;;;;;;24.79;61.49;101446.47;5053279;28;20047;-76
2022/08/25 06:28:49;;;;;;;49.53;20.13;;;;;;;25.19;60.33;101446.78;5035992;28;20021;-76
2022/08/25 06:31:15;;;;;;;54.42;22.08;;;;;;;25.06;60.38;101444.44;5054157;28;20233;-76
2022/08/25 06:33:41;;;;;;;51.00;20.88;;;;;;;25.32;59.17;101450.19;5036583;28;20029;-77
2022/08/25 06:36:07;;;;;;;53.47;21.35;;;;;;;25.74;58.18;101449.28;5053618;28;20088;-76
2022/08/25 06:38:33;;;;;;;51.03;23.67;;;;;;;25.84;55.09;101458.47;5053701;28;20079;-76
2022/08/25 06:41:01;;;;;;;48.75;21.83;;;;;;;25.83;55.96;101455.97;5054127;28;20029;-76
2022/08/25 06:43:26;;;;;;;50.88;21.38;;;;;;;25.44;56.77;101459.06;5053873;28;20028;-77
2022/08/25 06:45:52;;;;;;;43.90;23.27;;;;;;;25.00;57.82;101455.72;5016481;28;20501;-74
2022/08/25 06:48:17;;;;;;;60.20;23.30;;;;;;;24.57;59.04;101449.31;5034208;28;20489;-75
2022/08/25 06:50:43;;;;;;;43.78;24.85;;;;;;;24.20;60.80;101445.31;5035878;28;20029;-76
2022/08/25 06:53:09;;;;;;;54.00;24.48;;;;;;;24.27;61.30;101448.69;5035830;28;20021;-76
2022/08/25 06:55:35;;;;;;;54.85;22.90;;;;;;;24.31;61.27;101436.06;5053370;28;20070;-76
2022/08/25 06:58:02;;;;;;;42.80;23.00;;;;;;;25.03;60.38;101435.91;5034727;28;20121;-77
2022/08/25 07:00:27;;;;;;;45.92;22.83;;;;;;;26.04;56.78;101440.31;5052919;28;20399;-78
2022/08/25 07:02:52;;;;;;;44.10;21.27;;;;;;;27.15;53.19;101447.09;5054366;28;20036;-76
2022/08/25 07:05:18;;;;;;;30.83;18.08;;;;;;;27.87;51.06;101444.16;5015727;28;20302;-77
2022/08/25 07:07:45;;;;;;;36.25;18.52;;;;;;;28.54;49.15;101447.41;5034172;28;20439;-76
2022/08/25 07:10:11;;;;;;;48.17;20.08;;;;;;;29.21;47.56;101452.38;5045083;28;20041;-77
2022/08/25 07:12:37;;;;;;;40.47;21.08;;;;;;;28.96;46.44;101448.69;5019209;28;20108;-77
2022/08/25 07:15:03;;;;;;;51.60;20.50;;;;;;;28.79;47.42;101442.75;5040124;28;20077;-75
2022/08/25 07:17:28;;;;;;;41.30;19.58;;;;;;;28.66;47.39;101439.53;5052069;28;20021;-75
2022/08/25 07:19:54;;;;;;;40.72;19.35;;;;;;;28.36;48.31;101439.75;5049054;28;20075;-75
2022/08/25 07:22:19;;;;;;;42.20;20.75;;;;;;;28.09;48.63;101440.97;5038379;28;20033;-75
2022/08/25 07:24:44;;;;;;;39.22;20.52;;;;;;;28.00;48.76;101443.53;5051433;28;20067;-76
2022/08/25 07:27:10;;;;;;;39.58;17.95;;;;;;;28.92;46.38;101441.25;5052203;28;20086;-77
2022/08/25 07:29:37;;;;;;;40.20;19.35;;;;;;;29.41;44.01;101446.63;5052884;28;20040;-76
2022/08/25 07:32:03;;;;;;;31.05;16.80;;;;;;;29.19;45.38;101440.75;5052535;28;20107;-75
2022/08/25 07:37:13;;;;;;;38.78;17.67;;;;;;;29.54;42.76;101437.59;5033023;28;20156;-76
2022/08/25 07:39:38;;;;;;;43.73;17.33;;;;;;;29.34;44.47;101431.44;5033208;28;20065;-75
2022/08/25 07:42:04;;;;;;;37.07;17.40;;;;;;;30.78;41.47;101443.09;5041215;28;20337;-77
2022/08/25 07:44:30;;;;;;;31.10;16.10;;;;;;;31.52;39.98;101444.25;5060999;28;20044;-75
2022/08/25 07:46:55;;;;;;;37.63;19.77;;;;;;;30.52;40.62;101441.84;5058645;28;20075;-75
2022/08/25 07:49:22;;;;;;;40.70;19.23;;;;;;;29.37;42.46;101450.25;5053495;28;20040;-75
2022/08/25 07:51:48;;;;;;;37.85;19.23;;;;;;;29.51;42.45;101440.94;5052172;28;20078;-75
2022/08/25 07:54:13;;;;;;;38.17;18.00;;;;;;;29.66;42.93;101447.47;5046081;28;20361;-76
2022/08/25 07:56:41;;;;;;;35.13;17.33;;;;;;;30.42;41.57;101442.84;5049346;28;20031;-76
2022/08/25 07:59:07;;;;;;;38.65;16.92;;;;;;;30.80;39.80;101448.31;5030962;28;20032;-77
2022/08/25 08:01:32;;;;;;;33.03;16.83;;;;;;;31.02;39.73;101444.94;5034642;28;20025;-76
2022/08/25 08:03:57;;;;;;;31.60;16.83;;;;;;;30.92;39.03;101447.88;5052598;28;20024;-75
2022/08/25 08:06:23;;;;;;;31.97;15.40;;;;;;;30.80;39.30;101451.91;5052236;28;20032;-75
2022/08/25 08:08:50;;;;;;;31.87;15.03;;;;;;;31.31;38.79;101454.94;5043830;28;20049;-74
2022/08/25 08:11:28;;;;;;;35.00;16.17;;;;;;;30.75;39.94;101460.34;5051283;28;20051;-76
2022/08/25 08:13:54;;;;;;;27.20;14.35;;;;;;;31.06;39.52;101451.50;5038028;28;20052;-78
2022/08/25 08:16:22;;;;;;;29.73;14.38;;;;;;;31.01;38.65;101454.38;5044882;28;20439;-76
2022/08/25 08:18:47;;;;;;;41.97;14.40;;;;;;;31.25;38.99;101448.66;5033522;28;20656;-76
2022/08/25 08:21:18;;;;;;;23.63;13.33;;;;;;;31.53;37.68;101463.44;5050857;28;20029;-76
2022/08/25 08:23:43;;;;;;;25.30;13.00;;;;;;;31.28;38.04;101451.66;5029652;28;20476;-76
2022/08/25 08:26:09;;;;;;;30.60;13.67;;;;;;;31.58;38.35;101456.97;5050914;28;20027;-78
2022/08/25 08:28:34;;;;;;;32.50;11.27;;;;;;;31.31;38.20;101466.06;5036658;28;20442;-76
2022/08/25 08:30:59;;;;;;;19.20;10.90;;;;;;;31.42;38.40;101456.44;5050785;28;20021;-75
2022/08/25 08:33:25;;;;;;;47.07;11.40;;;;;;;31.62;37.64;101457.97;5035080;28;20057;-77
2022/08/25 08:36:10;;;;;;;30.97;10.27;;;;;;;31.69;37.68;101456.44;5051453;28;20021;-77
2022/08/25 08:38:37;;;;;;;22.47;11.60;;;;;;;32.06;36.51;101457.34;5052614;28;20542;-76
2022/08/25 08:44:21;;;;;;;24.95;10.18;;;;;;;33.16;35.35;101452.50;5048552;28;19963;-77
2022/08/25 08:47:02;;;;;;;31.73;10.80;;;;;;;33.17;34.71;101451.34;5033764;28;20091;-76
2022/08/25 08:49:54;;;;;;;35.10;10.15;;;;;;;32.95;34.96;101452.19;5031851;28;20033;-77
2022/08/25 08:52:23;;;;;;;22.77;9.25;;;;;;;33.12;34.61;101451.47;5029492;28;20448;-77
2022/08/25 08:54:54;;;;;;;33.63;9.18;;;;;;;34.27;33.16;101452.34;5033254;28;20467;-78
2022/08/25 08:57:24;;;;;;;24.17;9.05;;;;;;;34.52;31.97;101454.31;5022342;28;20104;-78
2022/08/25 09:00:00;;;;;;;23.55;8.02;;;;;;;34.83;31.84;101446.91;5025620;28;20026;-77
2022/08/25 09:02:41;;;;;;;23.33;9.43;;;;;;;34.37;32.53;101451.22;5030190;28;20128;-77
2022/08/25 09:05:10;;;;;;;26.17;8.95;;;;;;;33.69;33.72;101445.97;5028440;28;20013;-77
2022/08/25 09:07:50;;;;;;;28.60;9.55;;;;;;;32.76;34.17;101447.63;5050095;28;20119;-76
2022/08/25 09:10:16;;;;;;;27.60;8.88;;;;;;;33.19;33.91;101449.06;5031142;28;20045;-76
2022/08/25 09:13:03;;;;;;;23.92;8.00;;;;;;;32.82;34.42;101453.91;5018302;28;20052;-76
2022/08/25 09:18:51;;;;;;;24.90;7.45;;;;;;;31.39;35.32;101443.97;5033044;28;20052;-77
2022/08/25 09:21:20;;;;;;;19.08;7.30;;;;;;;31.79;34.27;101443.44;5028136;28;20087;-77
2022/08/25 09:24:04;;;;;;;15.10;7.05;;;;;;;31.43;35.59;101446.94;5048015;28;20059;-76
2022/08/25 09:26:42;;;;;;;24.52;7.40;;;;;;;31.84;34.54;101435.00;5053291;28;20029;-76
2022/08/25 09:29:12;;;;;;;13.52;6.60;;;;;;;32.63;33.85;101434.59;5021483;28;20029;-76
2022/08/25 09:31:40;;;;;;;17.70;7.32;;;;;;;32.37;32.53;101431.56;5035424;28;20021;-76
2022/08/25 09:34:11;;;;;;;17.58;6.50;;;;;;;31.76;33.87;101433.75;5044768;28;20036;-76
2022/08/25 09:36:37;;;;;;;13.45;5.93;;;;;;;32.07;34.14;101433.94;5050814;28;20036;-78
2022/08/25 09:39:03;;;;;;;23.07;6.50;;;;;;;31.91;32.03;101436.22;5054725;28;20033;-76
2022/08/25 09:41:34;;;;;;;;;;;;;;;32.35;32.65;101436.63;5054766;28;20399;-76
2022/08/25 09:44:00;;;;;;;14.35;6.28;;;;;;;33.07;31.33;101430.09;5054439;28;19909;-78
2022/08/25 09:46:27;;;;;;;14.03;6.53;;;;;;;32.69;30.06;101422.16;5045210;28;20473;-76
2022/08/25 09:48:54;;;;;;;21.67;6.10;;;;;;;32.93;30.76;101434.94;5034412;28;20376;-76
2022/08/25 09:51:27;;;;;;;15.85;5.55;;;;;;;32.24;31.11;101427.69;5016531;28;20530;-76
2022/08/25 09:54:26;;;;;;;19.52;6.45;;;;;;;32.13;31.46;101424.31;5052937;28;20028;-74
2022/08/25 09:57:00;;;;;;;12.70;5.90;;;;;;;32.65;30.87;101423.09;5053719;28;20040;-76
2022/08/25 09:59:33;;;;;;;15.70;5.90;;;;;;;32.94;30.04;101420.69;5053953;28;20029;-75
2022/08/25 10:02:04;;;;;;;18.13;5.85;;;;;;;32.81;30.05;101421.59;5041796;28;20326;-75
2022/08/25 10:04:37;;;;;;;12.98;5.75;;;;;;;32.84;30.09;101429.31;5053976;28;20112;-75
2022/08/25 10:07:28;;;;;;;36.05;6.20;;;;;;;32.82;29.87;101419.63;5053559;28;20124;-75
2022/08/25 10:10:00;;;;;;;16.25;5.57;;;;;;;32.90;30.14;101419.66;5045846;28;20057;-76
2022/08/25 10:12:46;;;;;;;21.17;6.05;;;;;;;32.52;30.95;101413.69;5054621;28;20048;-74
2022/08/25 10:15:25;;;;;;;28.70;5.82;;;;;;;33.17;30.05;101413.09;5053592;28;20111;-75
2022/08/25 10:17:51;;;;;;;15.93;6.05;;;;;;;33.18;30.15;101417.56;5053524;28;20025;-75
2022/08/25 10:20:22;;;;;;;26.13;5.70;;;;;;;33.23;29.00;101419.38;5035817;28;20040;-75
2022/08/25 10:22:49;;;;;;;20.15;5.82;;;;;;;33.78;29.48;101404.13;5053603;28;20021;-74
2022/08/25 10:25:19;;;;;;;21.02;5.68;;;;;;;33.83;27.85;101404.78;5053755;28;20061;-74
2022/08/25 10:28:08;;;;;;;17.88;5.30;;;;;;;34.38;27.84;101416.50;5034794;28;20040;-76
2022/08/25 10:30:56;;;;;;;18.55;5.43;;;;;;;33.71;28.14;101409.38;5052631;28;20087;-74
2022/08/25 10:33:53;;;;;;;15.98;5.13;;;;;;;33.51;27.98;101402.41;5014541;28;20531;-76
2022/08/25 10:36:31;;;;;;;13.18;5.18;;;;;;;33.10;28.61;101397.97;5052473;28;20036;-75
2022/08/25 10:38:59;;;;;;;17.25;4.82;;;;;;;32.77;27.74;101389.91;5037281;28;20025;-76
2022/08/25 10:41:49;;;;;;;18.35;5.65;;;;;;;33.42;28.26;101383.66;5059288;28;20029;-75
2022/08/25 10:47:56;;;;;;;20.77;5.00;;;;;;;33.77;27.52;101378.19;4991698;28;20063;-75
2022/08/25 10:50:33;;;;;;;10.55;5.28;;;;;;;34.09;28.19;101370.50;5052081;28;20098;-75
2022/08/25 10:53:13;;;;;;;13.75;4.95;;;;;;;34.44;27.11;101374.09;5044311;28;20806;-75
2022/08/25 10:55:54;;;;;;;14.75;4.90;;;;;;;34.33;26.11;101371.97;5034711;28;20436;-74
2022/08/25 10:58:22;;;;;;;9.20;4.10;;;;;;;34.03;27.18;101388.56;5032765;28;20052;-75
2022/08/25 11:00:58;;;;;;;15.13;5.15;;;;;;;33.56;27.94;101382.75;5028821;28;20044;-75
2022/08/25 11:03:42;;;;;;;14.05;4.25;;;;;;;32.99;27.40;101375.94;5036348;28;20029;-74
2022/08/25 11:06:17;;;;;;;10.00;4.30;;;;;;;32.67;27.39;101384.59;5015946;28;20065;-75
2022/08/25 11:08:52;;;;;;;14.77;4.30;;;;;;;32.42;26.79;101384.09;5015965;28;20057;-76
2022/08/25 11:11:25;;;;;;;20.05;4.45;;;;;;;32.45;26.69;101386.25;5026796;28;20079;-77
2022/08/25 11:14:01;;;;;;;12.20;4.45;;;;;;;31.74;27.30;101385.13;5036046;28;20032;-75
2022/08/25 11:16:50;;;;;;;9.20;4.20;;;;;;;32.11;28.37;101390.41;5030169;28;20024;-77
2022/08/25 11:19:30;;;;;;;16.23;4.70;;;;;;;32.28;28.01;101388.88;5008175;28;20074;-74
2022/08/25 11:22:03;;;;;;;9.90;4.80;;;;;;;32.02;28.60;101383.94;5034436;28;20719;-75
2022/08/25 11:24:37;;;;;;;19.38;4.93;;;;;;;31.92;29.16;101382.22;5034430;28;20132;-74
2022/08/25 11:27:04;;;;;;;11.15;5.07;;;;;;;32.18;29.66;101375.19;5032943;28;20108;-75
2022/08/25 11:29:35;;;;;;;12.85;5.35;;;;;;;32.10;30.23;101388.75;5049772;28;20056;-74
2022/08/25 11:32:01;;;;;;;13.82;5.20;;;;;;;32.06;29.66;101384.94;5015491;28;20045;-75
2022/08/25 11:34:30;;;;;;;15.00;5.40;;;;;;;32.23;30.31;101389.00;5021106;28;20029;-76
2022/08/25 11:37:06;;;;;;;13.85;5.65;;;;;;;32.53;30.09;101382.72;5049915;28;20071;-76
2022/08/25 11:39:47;;;;;;;16.87;5.93;;;;;;;32.99;30.43;101381.50;5031186;28;20119;-76
2022/08/25 11:42:18;;;;;;;12.73;5.28;;;;;;;33.40;30.60;101387.91;5050487;28;20056;-75
2022/08/25 11:45:13;;;;;;;11.90;5.28;;;;;;;33.47;28.59;101379.06;5049185;28;20049;-75